WetterOnline ( http://www.wetteronline.de )

Wetter aktuell Jessen (Elster)

Aktuelles Wetter: Wittenberg (106m)

6-stündlich | Neueste Meldungen
Ortszeit Temperatur Wetter
Do, 20.09. 2:00 19.7° C wolkenlos
Mi, 19.09. 20:00 25.5° C leicht bewölkt
Mi, 19.09. 14:00 27.1° C fast wolkenlos
Mi, 19.09. 8:00 16.0° C bewölkt
Mi, 19.09. 2:00 19.1° C wolkenlos
Di, 18.09. 20:00 25.9° C wolkenlos
Di, 18.09. 14:00 29.5° C wolkenlos
Di, 18.09. 8:00 13.7° C leicht bewölkt
Ortszeit Temperatur Wetter
Do, 20.09. 6:00 16.8° C wolkig
Do, 20.09. 5:50 16.8° C wolkig
Do, 20.09. 5:40 17.1° C wolkig
Do, 20.09. 5:30 17.5° C wolkig
Do, 20.09. 5:20 17.5° C wolkig
Do, 20.09. 5:10 17.1° C wolkig
Do, 20.09. 5:00 17.7° C wolkig
Do, 20.09. 4:30 17.7° C wolkig
Do, 20.09. 4:00 17.8° C wolkig
Do, 20.09. 3:30 18.8° C wolkig
Do, 20.09. 3:00 18.6° C wolkig
Ortszeit Relative Feuchte Sichtweite
Do, 20.09. 2:00 58% 35 km
Mi, 19.09. 20:00 40% 70 km
Mi, 19.09. 14:00 37% 26 km
Mi, 19.09. 8:00 78% 27 km
Mi, 19.09. 2:00 59% 35 km
Di, 18.09. 20:00 36% 55 km
Di, 18.09. 14:00 22% 35 km
Di, 18.09. 8:00 73% 29 km
Ortszeit Relative Feuchte Sichtweite
Do, 20.09. 6:00 70% 45 km
Do, 20.09. 5:50 70% -
Do, 20.09. 5:40 69% -
Do, 20.09. 5:30 67% 55 km
Do, 20.09. 5:20 67% -
Do, 20.09. 5:10 68% -
Do, 20.09. 5:00 67% 55 km
Do, 20.09. 4:30 66% 55 km
Do, 20.09. 4:00 67% 45 km
Do, 20.09. 3:30 63% 45 km
Do, 20.09. 3:00 63% 60 km
Ortszeit Niederschlagsmenge Niederschlagsart
Do, 20.09. 2:00 0.0 l/m2 in 6 Std. -
Mi, 19.09. 20:00 0.0 l/m2 in 12 Std. -
Mi, 19.09. 14:00 0.0 l/m2 in 6 Std. -
Mi, 19.09. 8:00 0.0 l/m2 in 12 Std. -
Mi, 19.09. 2:00 0.0 l/m2 in 6 Std. -
Di, 18.09. 20:00 0.0 l/m2 in 12 Std. -
Di, 18.09. 14:00 0.0 l/m2 in 6 Std. -
Di, 18.09. 8:00 0.0 l/m2 in 12 Std. -
Ortszeit Niederschlagsmenge Niederschlagsart
Do, 20.09. 6:00 0.0 l/m2 in 1 Std. -
Do, 20.09. 5:50 keine Meldung -
Do, 20.09. 5:40 keine Meldung -
Do, 20.09. 5:30 0.0 l/m2 in 1 Std. -
Do, 20.09. 5:20 keine Meldung -
Do, 20.09. 5:10 keine Meldung -
Do, 20.09. 5:00 0.0 l/m2 in 1 Std. -
Do, 20.09. 4:30 0.0 l/m2 in 1 Std. -
Do, 20.09. 4:00 0.0 l/m2 in 1 Std. -
Do, 20.09. 3:30 0.0 l/m2 in 1 Std. -
Do, 20.09. 3:00 0.0 l/m2 in 1 Std. -
Ortszeit Stärke Spitze Richtung
km/h Bft. km/h Grad Sektor
Do, 20.09. 2:00 7 2 11 260° W
Mi, 19.09. 20:00 7 2 33 190° S
Mi, 19.09. 14:00 17 3 28 200° S
Mi, 19.09. 8:00 0 0 18 - -
Mi, 19.09. 2:00 7 2 11 290° W
Di, 18.09. 20:00 7 2 36 190° S
Di, 18.09. 14:00 14 3 32 230° SW
Di, 18.09. 8:00 9 2 15 90° O
Ortszeit Stärke Spitze Richtung
km/h Bft. km/h Grad Sektor
Do, 20.09. 6:00 4 1 7 280° W
Do, 20.09. 5:50 4 1 - 280° W
Do, 20.09. 5:40 6 1 - 280° W
Do, 20.09. 5:30 4 1 7 280° W
Do, 20.09. 5:20 4 1 - 280° W
Do, 20.09. 5:10 4 1 - 280° W
Do, 20.09. 5:00 4 1 7 290° W
Do, 20.09. 4:30 7 2 7 280° W
Do, 20.09. 4:00 4 1 14 300° NW
Do, 20.09. 3:30 7 2 11 270° W
Do, 20.09. 3:00 2 1 11 220° SW
Ortszeit Untergrenze Bedeckung Gattung
total tief tief mittel hoch
Do, 20.09. 2:00 - 0/8 0/8 - - -
Mi, 19.09. 20:00 10500 m 3/8 0/8 - - -
Mi, 19.09. 14:00 9000 m 1/8 0/8 - - -
Mi, 19.09. 8:00 3300 m 8/8 7/8 - - -
Mi, 19.09. 2:00 - 0/8 0/8 - - -
Di, 18.09. 20:00 - 0/8 0/8 - - -
Di, 18.09. 14:00 - 0/8 0/8 - - -
Di, 18.09. 8:00 10500 m 5/8 0/8 - - -
Ortszeit Bedeckungsgrad in Achtel und Wolkenuntergrenze
Do, 20.09. 6:00 8(8400m) 8(9000m) 8(10500m)
Do, 20.09. 5:50 8(8400m) 8(9000m) 8(10500m)
Do, 20.09. 5:40 8(8400m) 8(9000m) 8(10500m)
Do, 20.09. 5:30 8(8700m) 8(9000m) 8(10500m)
Do, 20.09. 5:20 8(8700m) 8(9000m) 8(10500m)
Do, 20.09. 5:10 8(8700m) 8(10500m)
Do, 20.09. 5:00 8(8400m) 8(9000m) 8(10500m)
Do, 20.09. 4:30 4(8400m) 7(9000m) 8(9000m)
Do, 20.09. 4:00 8(9000m)
Do, 20.09. 3:30 1(8700m) 7(9000m) 7(10500m)
Do, 20.09. 3:00 7(9000m) 7(10500m)
Ortszeit Luftdruck NN (hPa) Tendenz (hPa in 3 Std.)
Do, 20.09. 2:00 1018 + 0,1
Mi, 19.09. 20:00 1017 + 0,2
Mi, 19.09. 14:00 1018 - 1,4
Mi, 19.09. 8:00 1019 + 1,7
Mi, 19.09. 2:00 1015 + 0,5
Di, 18.09. 20:00 1013 0,0
Di, 18.09. 14:00 1014 - 1,7
Di, 18.09. 8:00 1017 - 0,3
Ortszeit Luftdruck NN (hPa) Tendenz (hPa in 3 Std.)
Do, 20.09. 6:00 1019 + 0,9
Do, 20.09. 5:50 1019 keine Meldung
Do, 20.09. 5:40 1019 keine Meldung
Do, 20.09. 5:30 1018 + 0,8
Do, 20.09. 5:20 1018 keine Meldung
Do, 20.09. 5:10 1018 keine Meldung
Do, 20.09. 5:00 1018 + 0,7
Do, 20.09. 4:30 1018 + 0,6
Do, 20.09. 4:00 1018 + 0,4
Do, 20.09. 3:30 1018 0,0
Do, 20.09. 3:00 1018 - 0,1
Ortszeit Schneehöhe (cm)
Do, 20.09. 2:00 -
Mi, 19.09. 20:00 -
Mi, 19.09. 14:00 -
Mi, 19.09. 8:00 -
Mi, 19.09. 2:00 -
Di, 18.09. 20:00 -
Di, 18.09. 14:00 -
Di, 18.09. 8:00 -
Ortszeit Schneehöhe (cm)
Do, 20.09. 6:00 -
Do, 20.09. 5:50 -
Do, 20.09. 5:40 -
Do, 20.09. 5:30 -
Do, 20.09. 5:20 -
Do, 20.09. 5:10 -
Do, 20.09. 5:00 -
Do, 20.09. 4:30 -
Do, 20.09. 4:00 -
Do, 20.09. 3:30 -
Do, 20.09. 3:00 -
Link zu dieser Seite / Seite empfehlen

Das Wetter in ...